sensor_id;sensor_type;location;lat;lon;timestamp;temperature;humidity
3678;DHT22;1855;50.934;6.958;2024-02-21T05:31:56;8.70;99.90
3678;DHT22;1855;50.934;6.958;2024-02-21T05:34:23;8.60;99.90
3678;DHT22;1855;50.934;6.958;2024-02-21T05:36:50;8.70;99.90
3678;DHT22;1855;50.934;6.958;2024-02-21T05:39:18;8.70;99.90
3678;DHT22;1855;50.934;6.958;2024-02-21T05:41:44;8.70;99.90
3678;DHT22;1855;50.934;6.958;2024-02-21T05:44:12;8.70;99.90
3678;DHT22;1855;50.934;6.958;2024-02-21T05:46:38;8.70;99.90
3678;DHT22;1855;50.934;6.958;2024-02-21T05:49:07;8.70;99.90
3678;DHT22;1855;50.934;6.958;2024-02-21T05:51:33;8.70;99.90
3678;DHT22;1855;50.934;6.958;2024-02-21T05:54:00;8.70;99.90
3678;DHT22;1855;50.934;6.958;2024-02-21T05:56:27;8.70;99.90
3678;DHT22;1855;50.934;6.958;2024-02-21T05:58:54;8.70;99.90
3678;DHT22;1855;50.934;6.958;2024-02-21T06:01:21;8.70;99.90
3678;DHT22;1855;50.934;6.958;2024-02-21T06:03:48;8.70;99.90
3678;DHT22;1855;50.934;6.958;2024-02-21T06:06:16;8.70;99.90
3678;DHT22;1855;50.934;6.958;2024-02-21T06:08:42;8.70;99.90
3678;DHT22;1855;50.934;6.958;2024-02-21T06:11:09;8.70;99.90
3678;DHT22;1855;50.934;6.958;2024-02-21T06:13:38;8.70;99.90
3678;DHT22;1855;50.934;6.958;2024-02-21T06:16:06;8.70;99.90
3678;DHT22;1855;50.934;6.958;2024-02-21T06:18:35;8.70;99.90
3678;DHT22;1855;50.934;6.958;2024-02-21T06:21:03;8.70;99.90
3678;DHT22;1855;50.934;6.958;2024-02-21T06:23:31;8.70;99.90
3678;DHT22;1855;50.934;6.958;2024-02-21T06:25:58;8.80;99.90
3678;DHT22;1855;50.934;6.958;2024-02-21T06:28:25;8.80;99.90
3678;DHT22;1855;50.934;6.958;2024-02-21T06:30:52;8.70;99.90
3678;DHT22;1855;50.934;6.958;2024-02-21T06:33:18;8.80;99.90
3678;DHT22;1855;50.934;6.958;2024-02-21T06:35:48;8.80;99.90
3678;DHT22;1855;50.934;6.958;2024-02-21T06:38:17;8.70;99.90
3678;DHT22;1855;50.934;6.958;2024-02-21T06:40:45;8.80;99.90
3678;DHT22;1855;50.934;6.958;2024-02-21T06:43:17;8.80;99.90
3678;DHT22;1855;50.934;6.958;2024-02-21T06:45:44;8.80;99.90
3678;DHT22;1855;50.934;6.958;2024-02-21T06:48:13;8.80;99.90
3678;DHT22;1855;50.934;6.958;2024-02-21T06:50:39;8.80;99.90
3678;DHT22;1855;50.934;6.958;2024-02-21T06:53:06;8.80;99.90
3678;DHT22;1855;50.934;6.958;2024-02-21T06:55:33;8.80;99.90
3678;DHT22;1855;50.934;6.958;2024-02-21T06:58:01;8.80;99.90
3678;DHT22;1855;50.934;6.958;2024-02-21T07:00:28;8.80;99.90
3678;DHT22;1855;50.934;6.958;2024-02-21T07:02:55;8.80;99.90
3678;DHT22;1855;50.934;6.958;2024-02-21T07:05:22;8.80;99.90
3678;DHT22;1855;50.934;6.958;2024-02-21T07:07:48;8.80;99.90
3678;DHT22;1855;50.934;6.958;2024-02-21T07:10:15;8.80;99.90
3678;DHT22;1855;50.934;6.958;2024-02-21T07:12:42;8.80;99.90
3678;DHT22;1855;50.934;6.958;2024-02-21T07:15:10;8.80;99.90
3678;DHT22;1855;50.934;6.958;2024-02-21T07:17:37;8.80;99.90
3678;DHT22;1855;50.934;6.958;2024-02-21T07:20:04;8.80;99.90
3678;DHT22;1855;50.934;6.958;2024-02-21T07:22:31;8.80;99.90
3678;DHT22;1855;50.934;6.958;2024-02-21T07:24:58;8.80;99.90
3678;DHT22;1855;50.934;6.958;2024-02-21T07:27:24;8.80;99.90
3678;DHT22;1855;50.934;6.958;2024-02-21T07:29:53;8.80;99.90
3678;DHT22;1855;50.934;6.958;2024-02-21T07:32:21;8.80;99.90
3678;DHT22;1855;50.934;6.958;2024-02-21T07:34:48;8.80;99.90
3678;DHT22;1855;50.934;6.958;2024-02-21T07:37:15;8.80;99.90
3678;DHT22;1855;50.934;6.958;2024-02-21T07:39:41;8.80;99.90
3678;DHT22;1855;50.934;6.958;2024-02-21T07:42:08;8.80;99.90
3678;DHT22;1855;50.934;6.958;2024-02-21T07:44:35;8.80;99.90
3678;DHT22;1855;50.934;6.958;2024-02-21T07:47:02;8.80;99.90
3678;DHT22;1855;50.934;6.958;2024-02-21T07:49:30;8.80;99.90
3678;DHT22;1855;50.934;6.958;2024-02-21T07:51:56;8.80;99.90
3678;DHT22;1855;50.934;6.958;2024-02-21T07:54:23;8.80;99.90
3678;DHT22;1855;50.934;6.958;2024-02-21T07:56:50;8.70;99.90
3678;DHT22;1855;50.934;6.958;2024-02-21T07:59:17;8.80;99.90
3678;DHT22;1855;50.934;6.958;2024-02-21T08:01:43;8.80;99.90
3678;DHT22;1855;50.934;6.958;2024-02-21T08:04:11;8.70;99.90
3678;DHT22;1855;50.934;6.958;2024-02-21T08:06:39;8.70;99.90
3678;DHT22;1855;50.934;6.958;2024-02-21T08:09:05;8.70;99.90
3678;DHT22;1855;50.934;6.958;2024-02-21T08:11:32;8.80;99.90
3678;DHT22;1855;50.934;6.958;2024-02-21T08:13:59;8.70;99.90
3678;DHT22;1855;50.934;6.958;2024-02-21T08:16:26;8.70;99.90
3678;DHT22;1855;50.934;6.958;2024-02-21T08:18:53;8.80;99.90
3678;DHT22;1855;50.934;6.958;2024-02-21T08:21:20;8.80;99.90
3678;DHT22;1855;50.934;6.958;2024-02-21T08:23:48;8.80;99.90
3678;DHT22;1855;50.934;6.958;2024-02-21T08:26:17;8.80;99.90
3678;DHT22;1855;50.934;6.958;2024-02-21T08:28:43;8.80;99.90
3678;DHT22;1855;50.934;6.958;2024-02-21T08:31:10;8.80;99.90
3678;DHT22;1855;50.934;6.958;2024-02-21T08:33:37;8.90;99.90
3678;DHT22;1855;50.934;6.958;2024-02-21T08:36:04;8.90;99.90
3678;DHT22;1855;50.934;6.958;2024-02-21T08:38:31;8.90;99.90
3678;DHT22;1855;50.934;6.958;2024-02-21T08:41:00;9.00;99.90
3678;DHT22;1855;50.934;6.958;2024-02-21T08:43:27;9.00;99.90
3678;DHT22;1855;50.934;6.958;2024-02-21T08:45:53;9.10;99.90
3678;DHT22;1855;50.934;6.958;2024-02-21T08:48:20;9.20;99.90
3678;DHT22;1855;50.934;6.958;2024-02-21T08:50:47;9.20;99.90
3678;DHT22;1855;50.934;6.958;2024-02-21T08:53:14;9.20;99.90
3678;DHT22;1855;50.934;6.958;2024-02-21T08:55:41;9.20;99.90
3678;DHT22;1855;50.934;6.958;2024-02-21T08:58:11;9.20;99.90
3678;DHT22;1855;50.934;6.958;2024-02-21T09:00:38;9.30;99.90
3678;DHT22;1855;50.934;6.958;2024-02-21T09:03:04;9.30;99.90
3678;DHT22;1855;50.934;6.958;2024-02-21T09:05:31;9.40;99.90
3678;DHT22;1855;50.934;6.958;2024-02-21T09:08:00;9.40;99.90
3678;DHT22;1855;50.934;6.958;2024-02-21T09:10:27;9.60;99.90
3678;DHT22;1855;50.934;6.958;2024-02-21T09:12:53;9.70;99.90
3678;DHT22;1855;50.934;6.958;2024-02-21T09:15:22;9.80;99.90
3678;DHT22;1855;50.934;6.958;2024-02-21T09:17:49;9.90;99.90
3678;DHT22;1855;50.934;6.958;2024-02-21T09:20:16;10.00;99.90
3678;DHT22;1855;50.934;6.958;2024-02-21T09:22:43;10.00;99.90
3678;DHT22;1855;50.934;6.958;2024-02-21T09:25:10;10.00;99.90
3678;DHT22;1855;50.934;6.958;2024-02-21T09:27:38;10.00;99.90
3678;DHT22;1855;50.934;6.958;2024-02-21T09:30:05;10.10;99.90
3678;DHT22;1855;50.934;6.958;2024-02-21T09:32:34;10.00;99.90
3678;DHT22;1855;50.934;6.958;2024-02-21T09:35:00;10.00;99.90
3678;DHT22;1855;50.934;6.958;2024-02-21T09:37:28;10.00;99.90
3678;DHT22;1855;50.934;6.958;2024-02-21T09:39:54;10.00;99.90
3678;DHT22;1855;50.934;6.958;2024-02-21T09:42:21;10.00;99.90
3678;DHT22;1855;50.934;6.958;2024-02-21T09:44:48;10.00;99.90
3678;DHT22;1855;50.934;6.958;2024-02-21T09:47:19;10.00;99.90
3678;DHT22;1855;50.934;6.958;2024-02-21T09:49:51;10.10;99.90
3678;DHT22;1855;50.934;6.958;2024-02-21T09:52:19;10.10;99.90
3678;DHT22;1855;50.934;6.958;2024-02-21T09:54:47;10.20;99.90
3678;DHT22;1855;50.934;6.958;2024-02-21T09:57:14;10.20;99.90
3678;DHT22;1855;50.934;6.958;2024-02-21T09:59:41;10.30;99.90
3678;DHT22;1855;50.934;6.958;2024-02-21T10:02:08;10.40;99.90
3678;DHT22;1855;50.934;6.958;2024-02-21T10:04:37;10.40;99.90
3678;DHT22;1855;50.934;6.958;2024-02-21T10:07:05;10.50;99.90
3678;DHT22;1855;50.934;6.958;2024-02-21T10:09:32;10.40;99.90
3678;DHT22;1855;50.934;6.958;2024-02-21T10:12:08;10.50;99.90
3678;DHT22;1855;50.934;6.958;2024-02-21T10:14:35;10.50;99.90
3678;DHT22;1855;50.934;6.958;2024-02-21T10:17:02;10.60;99.90
3678;DHT22;1855;50.934;6.958;2024-02-21T10:19:30;10.60;99.90
3678;DHT22;1855;50.934;6.958;2024-02-21T10:22:01;10.70;99.90
3678;DHT22;1855;50.934;6.958;2024-02-21T10:24:30;10.80;99.90
3678;DHT22;1855;50.934;6.958;2024-02-21T10:27:04;10.80;99.90
3678;DHT22;1855;50.934;6.958;2024-02-21T10:29:33;10.80;99.90
3678;DHT22;1855;50.934;6.958;2024-02-21T10:32:05;10.70;99.90
3678;DHT22;1855;50.934;6.958;2024-02-21T10:34:32;10.70;99.90
3678;DHT22;1855;50.934;6.958;2024-02-21T10:37:02;10.70;99.90
3678;DHT22;1855;50.934;6.958;2024-02-21T10:39:32;10.70;99.90
3678;DHT22;1855;50.934;6.958;2024-02-21T10:42:00;10.80;99.90
3678;DHT22;1855;50.934;6.958;2024-02-21T10:44:30;11.00;99.90
3678;DHT22;1855;50.934;6.958;2024-02-21T10:46:57;11.10;99.90
3678;DHT22;1855;50.934;6.958;2024-02-21T10:49:25;11.20;99.90
3678;DHT22;1855;50.934;6.958;2024-02-21T10:51:55;11.20;99.90
3678;DHT22;1855;50.934;6.958;2024-02-21T10:54:36;11.30;98.30
3678;DHT22;1855;50.934;6.958;2024-02-21T10:57:04;11.30;99.00
3678;DHT22;1855;50.934;6.958;2024-02-21T10:59:32;11.20;98.80
3678;DHT22;1855;50.934;6.958;2024-02-21T11:02:00;11.20;99.70
3678;DHT22;1855;50.934;6.958;2024-02-21T11:04:28;11.20;99.50
3678;DHT22;1855;50.934;6.958;2024-02-21T11:06:56;11.20;99.90
3678;DHT22;1855;50.934;6.958;2024-02-21T11:09:30;11.40;98.30
3678;DHT22;1855;50.934;6.958;2024-02-21T11:12:02;11.40;97.30
3678;DHT22;1855;50.934;6.958;2024-02-21T11:14:29;11.50;97.80
3678;DHT22;1855;50.934;6.958;2024-02-21T11:16:58;11.60;96.10
3678;DHT22;1855;50.934;6.958;2024-02-21T11:19:26;11.60;97.20
3678;DHT22;1855;50.934;6.958;2024-02-21T11:21:54;11.70;95.60
3678;DHT22;1855;50.934;6.958;2024-02-21T11:24:28;11.70;94.50
3678;DHT22;1855;50.934;6.958;2024-02-21T11:26:55;11.70;94.00
3678;DHT22;1855;50.934;6.958;2024-02-21T11:29:26;11.80;94.40
3678;DHT22;1855;50.934;6.958;2024-02-21T11:31:54;11.90;92.40
3678;DHT22;1855;50.934;6.958;2024-02-21T11:34:21;12.00;92.60
3678;DHT22;1855;50.934;6.958;2024-02-21T11:36:48;11.90;93.00
3678;DHT22;1855;50.934;6.958;2024-02-21T11:39:23;11.90;92.90
3678;DHT22;1855;50.934;6.958;2024-02-21T11:42:03;11.90;92.10
3678;DHT22;1855;50.934;6.958;2024-02-21T11:44:32;11.90;92.30
3678;DHT22;1855;50.934;6.958;2024-02-21T11:46:59;11.80;92.10
3678;DHT22;1855;50.934;6.958;2024-02-21T11:49:26;11.70;92.30
3678;DHT22;1855;50.934;6.958;2024-02-21T11:51:58;11.70;93.60
3678;DHT22;1855;50.934;6.958;2024-02-21T11:54:26;11.80;94.00
3678;DHT22;1855;50.934;6.958;2024-02-21T11:56:53;11.70;91.70
3678;DHT22;1855;50.934;6.958;2024-02-21T11:59:20;11.70;92.50
3678;DHT22;1855;50.934;6.958;2024-02-21T12:01:48;11.70;93.60
3678;DHT22;1855;50.934;6.958;2024-02-21T12:04:18;11.70;93.30
3678;DHT22;1855;50.934;6.958;2024-02-21T12:06:46;11.80;91.80
3678;DHT22;1855;50.934;6.958;2024-02-21T12:09:14;11.80;91.70
3678;DHT22;1855;50.934;6.958;2024-02-21T12:11:41;11.70;92.50
3678;DHT22;1855;50.934;6.958;2024-02-21T12:14:08;11.60;93.30
3678;DHT22;1855;50.934;6.958;2024-02-21T12:16:35;11.60;93.10
3678;DHT22;1855;50.934;6.958;2024-02-21T12:19:04;11.60;94.40
3678;DHT22;1855;50.934;6.958;2024-02-21T12:21:32;11.70;93.40
3678;DHT22;1855;50.934;6.958;2024-02-21T12:24:11;11.80;92.00
3678;DHT22;1855;50.934;6.958;2024-02-21T12:26:38;11.80;92.20
3678;DHT22;1855;50.934;6.958;2024-02-21T12:29:05;11.80;92.20
3678;DHT22;1855;50.934;6.958;2024-02-21T12:31:32;11.80;93.20
3678;DHT22;1855;50.934;6.958;2024-02-21T12:34:00;11.90;95.10
3678;DHT22;1855;50.934;6.958;2024-02-21T12:36:28;12.00;92.90
3678;DHT22;1855;50.934;6.958;2024-02-21T12:38:54;11.90;92.50
3678;DHT22;1855;50.934;6.958;2024-02-21T12:41:21;11.70;93.50
3678;DHT22;1855;50.934;6.958;2024-02-21T12:43:48;11.60;95.80
3678;DHT22;1855;50.934;6.958;2024-02-21T12:46:15;11.70;96.00
3678;DHT22;1855;50.934;6.958;2024-02-21T12:48:41;11.80;95.10
3678;DHT22;1855;50.934;6.958;2024-02-21T12:51:08;11.90;95.40
3678;DHT22;1855;50.934;6.958;2024-02-21T12:53:35;12.10;93.50
3678;DHT22;1855;50.934;6.958;2024-02-21T12:56:02;12.20;93.00
3678;DHT22;1855;50.934;6.958;2024-02-21T12:58:30;12.00;92.30
3678;DHT22;1855;50.934;6.958;2024-02-21T13:00:58;11.90;94.40
3678;DHT22;1855;50.934;6.958;2024-02-21T13:03:24;11.80;95.40
3678;DHT22;1855;50.934;6.958;2024-02-21T13:05:51;11.80;95.50
3678;DHT22;1855;50.934;6.958;2024-02-21T13:08:18;12.00;94.60
3678;DHT22;1855;50.934;6.958;2024-02-21T13:10:49;12.00;94.00
3678;DHT22;1855;50.934;6.958;2024-02-21T13:13:16;12.10;91.90
3678;DHT22;1855;50.934;6.958;2024-02-21T13:15:42;12.10;93.30
3678;DHT22;1855;50.934;6.958;2024-02-21T13:18:09;12.20;92.70
3678;DHT22;1855;50.934;6.958;2024-02-21T13:20:36;12.10;91.70
3678;DHT22;1855;50.934;6.958;2024-02-21T13:23:03;12.20;91.70
3678;DHT22;1855;50.934;6.958;2024-02-21T13:25:30;12.20;88.80
3678;DHT22;1855;50.934;6.958;2024-02-21T13:27:58;12.30;88.40
3678;DHT22;1855;50.934;6.958;2024-02-21T13:30:25;12.30;89.50
3678;DHT22;1855;50.934;6.958;2024-02-21T13:32:52;12.30;86.80
3678;DHT22;1855;50.934;6.958;2024-02-21T13:35:20;12.40;86.50
3678;DHT22;1855;50.934;6.958;2024-02-21T13:37:47;12.50;83.90
3678;DHT22;1855;50.934;6.958;2024-02-21T13:40:14;12.60;84.00
3678;DHT22;1855;50.934;6.958;2024-02-21T13:42:41;12.70;85.20
3678;DHT22;1855;50.934;6.958;2024-02-21T13:45:10;12.60;81.10
3678;DHT22;1855;50.934;6.958;2024-02-21T13:47:36;12.50;79.70
3678;DHT22;1855;50.934;6.958;2024-02-21T13:50:05;12.30;81.30
3678;DHT22;1855;50.934;6.958;2024-02-21T13:52:36;12.10;84.50
3678;DHT22;1855;50.934;6.958;2024-02-21T13:55:03;12.00;85.50
3678;DHT22;1855;50.934;6.958;2024-02-21T13:57:29;12.00;84.40
3678;DHT22;1855;50.934;6.958;2024-02-21T13:59:56;11.90;87.40
3678;DHT22;1855;50.934;6.958;2024-02-21T14:02:24;11.90;90.40
3678;DHT22;1855;50.934;6.958;2024-02-21T14:04:51;11.80;90.00
3678;DHT22;1855;50.934;6.958;2024-02-21T14:07:17;11.80;91.20
3678;DHT22;1855;50.934;6.958;2024-02-21T14:09:44;11.90;91.30
3678;DHT22;1855;50.934;6.958;2024-02-21T14:12:11;11.90;90.50
3678;DHT22;1855;50.934;6.958;2024-02-21T14:14:38;12.00;90.30
3678;DHT22;1855;50.934;6.958;2024-02-21T14:17:04;12.00;90.10
3678;DHT22;1855;50.934;6.958;2024-02-21T14:19:32;12.00;90.80
3678;DHT22;1855;50.934;6.958;2024-02-21T14:21:59;12.00;90.40
3678;DHT22;1855;50.934;6.958;2024-02-21T14:24:27;12.00;91.40
3678;DHT22;1855;50.934;6.958;2024-02-21T14:26:54;12.00;88.30
3678;DHT22;1855;50.934;6.958;2024-02-21T14:29:21;12.00;90.60
3678;DHT22;1855;50.934;6.958;2024-02-21T14:31:48;12.00;90.70
3678;DHT22;1855;50.934;6.958;2024-02-21T14:34:15;12.00;91.10
3678;DHT22;1855;50.934;6.958;2024-02-21T14:36:43;11.90;91.80
3678;DHT22;1855;50.934;6.958;2024-02-21T14:39:10;12.00;91.90
3678;DHT22;1855;50.934;6.958;2024-02-21T14:41:37;11.90;92.10
3678;DHT22;1855;50.934;6.958;2024-02-21T14:44:05;11.80;91.70
3678;DHT22;1855;50.934;6.958;2024-02-21T14:46:32;11.80;91.30
3678;DHT22;1855;50.934;6.958;2024-02-21T14:48:58;11.80;91.10
3678;DHT22;1855;50.934;6.958;2024-02-21T14:51:25;11.80;91.80
3678;DHT22;1855;50.934;6.958;2024-02-21T14:53:53;11.80;91.30
3678;DHT22;1855;50.934;6.958;2024-02-21T14:56:21;11.80;91.50
3678;DHT22;1855;50.934;6.958;2024-02-21T14:58:49;11.80;90.80
3678;DHT22;1855;50.934;6.958;2024-02-21T15:01:16;11.90;91.40
3678;DHT22;1855;50.934;6.958;2024-02-21T15:03:42;11.80;90.00
3678;DHT22;1855;50.934;6.958;2024-02-21T15:06:09;11.90;90.70
3678;DHT22;1855;50.934;6.958;2024-02-21T15:08:37;11.90;90.80
3678;DHT22;1855;50.934;6.958;2024-02-21T15:11:07;11.90;90.10
3678;DHT22;1855;50.934;6.958;2024-02-21T15:13:34;11.90;81.20
3678;DHT22;1855;50.934;6.958;2024-02-21T15:16:02;11.90;78.10
3678;DHT22;1855;50.934;6.958;2024-02-21T15:18:30;11.90;78.80
3678;DHT22;1855;50.934;6.958;2024-02-21T15:20:58;11.90;79.40
3678;DHT22;1855;50.934;6.958;2024-02-21T15:23:25;11.90;80.30
3678;DHT22;1855;50.934;6.958;2024-02-21T15:25:52;11.90;78.70
3678;DHT22;1855;50.934;6.958;2024-02-21T15:28:20;11.90;79.90
3678;DHT22;1855;50.934;6.958;2024-02-21T15:30:47;11.90;81.70
3678;DHT22;1855;50.934;6.958;2024-02-21T15:33:13;11.90;81.20
3678;DHT22;1855;50.934;6.958;2024-02-21T15:35:40;11.80;80.10
3678;DHT22;1855;50.934;6.958;2024-02-21T15:38:07;11.80;82.10
3678;DHT22;1855;50.934;6.958;2024-02-21T15:40:35;11.80;76.70
3678;DHT22;1855;50.934;6.958;2024-02-21T15:43:01;11.80;76.50
3678;DHT22;1855;50.934;6.958;2024-02-21T15:45:30;11.80;72.80
3678;DHT22;1855;50.934;6.958;2024-02-21T15:47:56;11.80;70.60
3678;DHT22;1855;50.934;6.958;2024-02-21T15:50:23;11.80;70.00
3678;DHT22;1855;50.934;6.958;2024-02-21T15:52:53;11.70;71.90
3678;DHT22;1855;50.934;6.958;2024-02-21T15:55:20;11.70;72.30
3678;DHT22;1855;50.934;6.958;2024-02-21T15:57:47;11.60;72.60
3678;DHT22;1855;50.934;6.958;2024-02-21T16:00:15;11.60;73.10
3678;DHT22;1855;50.934;6.958;2024-02-21T16:02:43;11.50;73.60
3678;DHT22;1855;50.934;6.958;2024-02-21T16:05:10;11.50;74.20
3678;DHT22;1855;50.934;6.958;2024-02-21T16:07:37;11.40;73.70
3678;DHT22;1855;50.934;6.958;2024-02-21T16:10:05;11.40;74.30
3678;DHT22;1855;50.934;6.958;2024-02-21T16:12:32;11.40;73.40
3678;DHT22;1855;50.934;6.958;2024-02-21T16:14:59;11.30;74.10
3678;DHT22;1855;50.934;6.958;2024-02-21T16:17:26;11.30;75.30
3678;DHT22;1855;50.934;6.958;2024-02-21T16:19:54;11.30;73.90
3678;DHT22;1855;50.934;6.958;2024-02-21T16:22:21;11.20;75.60
3678;DHT22;1855;50.934;6.958;2024-02-21T16:24:48;11.20;75.30
3678;DHT22;1855;50.934;6.958;2024-02-21T16:27:14;11.20;76.00
3678;DHT22;1855;50.934;6.958;2024-02-21T16:29:41;11.20;76.30
3678;DHT22;1855;50.934;6.958;2024-02-21T16:32:08;11.10;77.40
3678;DHT22;1855;50.934;6.958;2024-02-21T16:34:35;11.10;77.90
3678;DHT22;1855;50.934;6.958;2024-02-21T16:37:04;11.10;78.40
3678;DHT22;1855;50.934;6.958;2024-02-21T16:39:31;11.10;78.90
3678;DHT22;1855;50.934;6.958;2024-02-21T16:41:58;11.00;80.40
3678;DHT22;1855;50.934;6.958;2024-02-21T16:44:28;11.00;81.80
3678;DHT22;1855;50.934;6.958;2024-02-21T16:46:56;11.00;84.10
3678;DHT22;1855;50.934;6.958;2024-02-21T16:49:23;10.90;84.60
3678;DHT22;1855;50.934;6.958;2024-02-21T16:51:51;10.90;88.20
3678;DHT22;1855;50.934;6.958;2024-02-21T16:54:22;10.90;89.50
3678;DHT22;1855;50.934;6.958;2024-02-21T16:56:48;10.90;90.70
3678;DHT22;1855;50.934;6.958;2024-02-21T16:59:15;10.80;91.60
3678;DHT22;1855;50.934;6.958;2024-02-21T17:01:42;10.80;92.70
3678;DHT22;1855;50.934;6.958;2024-02-21T17:04:09;10.70;93.50
3678;DHT22;1855;50.934;6.958;2024-02-21T17:06:36;10.70;94.10
3678;DHT22;1855;50.934;6.958;2024-02-21T17:09:03;10.70;95.00
3678;DHT22;1855;50.934;6.958;2024-02-21T17:11:34;10.70;95.80
3678;DHT22;1855;50.934;6.958;2024-02-21T17:14:01;10.70;94.90
3678;DHT22;1855;50.934;6.958;2024-02-21T17:16:28;10.60;94.70
3678;DHT22;1855;50.934;6.958;2024-02-21T17:18:56;10.60;95.40
3678;DHT22;1855;50.934;6.958;2024-02-21T17:21:22;10.60;95.10
3678;DHT22;1855;50.934;6.958;2024-02-21T17:23:49;10.60;93.90
3678;DHT22;1855;50.934;6.958;2024-02-21T17:26:16;10.60;95.40
3678;DHT22;1855;50.934;6.958;2024-02-21T17:28:44;10.60;94.00
3678;DHT22;1855;50.934;6.958;2024-02-21T17:31:11;10.60;94.70
3678;DHT22;1855;50.934;6.958;2024-02-21T17:33:38;10.60;94.50
3678;DHT22;1855;50.934;6.958;2024-02-21T17:36:05;10.60;94.40
3678;DHT22;1855;50.934;6.958;2024-02-21T17:38:32;10.60;95.70
3678;DHT22;1855;50.934;6.958;2024-02-21T17:40:59;10.50;97.80
3678;DHT22;1855;50.934;6.958;2024-02-21T17:43:26;10.50;99.90
3678;DHT22;1855;50.934;6.958;2024-02-21T17:45:59;10.30;99.90
3678;DHT22;1855;50.934;6.958;2024-02-21T17:48:26;10.20;99.90
3678;DHT22;1855;50.934;6.958;2024-02-21T17:50:53;10.00;99.90
3678;DHT22;1855;50.934;6.958;2024-02-21T17:53:20;9.90;99.90
3678;DHT22;1855;50.934;6.958;2024-02-21T17:55:46;9.80;99.90
3678;DHT22;1855;50.934;6.958;2024-02-21T17:58:13;9.70;99.90
3678;DHT22;1855;50.934;6.958;2024-02-21T18:00:40;9.50;99.90
3678;DHT22;1855;50.934;6.958;2024-02-21T18:03:12;9.50;99.90
3678;DHT22;1855;50.934;6.958;2024-02-21T18:05:40;9.30;99.90
3678;DHT22;1855;50.934;6.958;2024-02-21T18:08:07;9.20;99.90
3678;DHT22;1855;50.934;6.958;2024-02-21T18:10:34;9.20;99.90
3678;DHT22;1855;50.934;6.958;2024-02-21T18:13:03;9.10;99.90
3678;DHT22;1855;50.934;6.958;2024-02-21T18:15:31;9.00;99.90
3678;DHT22;1855;50.934;6.958;2024-02-21T18:17:57;9.00;99.90
3678;DHT22;1855;50.934;6.958;2024-02-21T18:20:25;8.90;99.90
3678;DHT22;1855;50.934;6.958;2024-02-21T18:22:52;8.90;99.90
3678;DHT22;1855;50.934;6.958;2024-02-21T18:25:19;8.90;99.90
3678;DHT22;1855;50.934;6.958;2024-02-21T18:27:49;8.80;99.90
3678;DHT22;1855;50.934;6.958;2024-02-21T18:30:17;8.80;99.90
3678;DHT22;1855;50.934;6.958;2024-02-21T18:32:44;8.70;99.90
3678;DHT22;1855;50.934;6.958;2024-02-21T18:35:11;8.70;99.90
3678;DHT22;1855;50.934;6.958;2024-02-21T18:37:41;8.70;99.90
3678;DHT22;1855;50.934;6.958;2024-02-21T18:40:09;8.60;99.90
3678;DHT22;1855;50.934;6.958;2024-02-21T18:42:37;8.60;99.90
3678;DHT22;1855;50.934;6.958;2024-02-21T18:45:06;8.50;99.90
3678;DHT22;1855;50.934;6.958;2024-02-21T18:47:34;8.50;99.90
3678;DHT22;1855;50.934;6.958;2024-02-21T18:50:00;8.50;99.90
3678;DHT22;1855;50.934;6.958;2024-02-21T18:52:27;8.40;99.90
3678;DHT22;1855;50.934;6.958;2024-02-21T18:54:55;8.40;99.90
3678;DHT22;1855;50.934;6.958;2024-02-21T18:57:23;8.30;99.90
3678;DHT22;1855;50.934;6.958;2024-02-21T18:59:49;8.30;99.90
3678;DHT22;1855;50.934;6.958;2024-02-21T19:02:16;8.20;99.90
3678;DHT22;1855;50.934;6.958;2024-02-21T19:04:43;8.20;99.90
3678;DHT22;1855;50.934;6.958;2024-02-21T19:07:10;8.20;99.90
3678;DHT22;1855;50.934;6.958;2024-02-21T19:09:36;8.20;99.90
3678;DHT22;1855;50.934;6.958;2024-02-21T19:12:07;8.20;99.90
3678;DHT22;1855;50.934;6.958;2024-02-21T19:14:34;8.20;99.90
3678;DHT22;1855;50.934;6.958;2024-02-21T19:17:00;8.20;99.90
3678;DHT22;1855;50.934;6.958;2024-02-21T19:19:27;8.20;99.90
3678;DHT22;1855;50.934;6.958;2024-02-21T19:21:54;8.10;99.90
3678;DHT22;1855;50.934;6.958;2024-02-21T19:24:21;8.10;99.90
3678;DHT22;1855;50.934;6.958;2024-02-21T19:26:49;8.10;99.90
3678;DHT22;1855;50.934;6.958;2024-02-21T19:29:17;8.10;99.90
3678;DHT22;1855;50.934;6.958;2024-02-21T19:31:44;8.10;99.90
3678;DHT22;1855;50.934;6.958;2024-02-21T19:34:10;8.10;99.90
3678;DHT22;1855;50.934;6.958;2024-02-21T19:36:37;8.10;99.90
3678;DHT22;1855;50.934;6.958;2024-02-21T19:39:06;8.10;99.90
3678;DHT22;1855;50.934;6.958;2024-02-21T19:41:33;8.10;99.90
3678;DHT22;1855;50.934;6.958;2024-02-21T19:44:00;8.10;99.90
3678;DHT22;1855;50.934;6.958;2024-02-21T19:46:28;8.10;99.90
3678;DHT22;1855;50.934;6.958;2024-02-21T19:48:55;8.10;99.90
3678;DHT22;1855;50.934;6.958;2024-02-21T19:51:22;8.10;99.90
3678;DHT22;1855;50.934;6.958;2024-02-21T19:53:49;8.10;99.90
3678;DHT22;1855;50.934;6.958;2024-02-21T19:56:16;8.10;99.90
3678;DHT22;1855;50.934;6.958;2024-02-21T19:58:43;8.10;99.90
3678;DHT22;1855;50.934;6.958;2024-02-21T20:01:10;8.10;99.90
3678;DHT22;1855;50.934;6.958;2024-02-21T20:03:39;8.10;99.90
3678;DHT22;1855;50.934;6.958;2024-02-21T20:06:06;8.10;99.90
3678;DHT22;1855;50.934;6.958;2024-02-21T20:08:33;8.10;99.90
3678;DHT22;1855;50.934;6.958;2024-02-21T20:11:00;8.10;99.90
3678;DHT22;1855;50.934;6.958;2024-02-21T20:13:27;8.10;99.90
3678;DHT22;1855;50.934;6.958;2024-02-21T20:15:54;8.10;99.90
3678;DHT22;1855;50.934;6.958;2024-02-21T20:18:21;8.10;99.90
3678;DHT22;1855;50.934;6.958;2024-02-21T20:20:49;8.10;99.90
3678;DHT22;1855;50.934;6.958;2024-02-21T20:23:17;8.00;99.90
3678;DHT22;1855;50.934;6.958;2024-02-21T20:25:45;8.00;99.90
3678;DHT22;1855;50.934;6.958;2024-02-21T20:28:13;8.00;99.90
3678;DHT22;1855;50.934;6.958;2024-02-21T20:30:40;8.00;99.90
3678;DHT22;1855;50.934;6.958;2024-02-21T20:33:07;8.00;99.90
3678;DHT22;1855;50.934;6.958;2024-02-21T20:35:34;8.00;99.90
3678;DHT22;1855;50.934;6.958;2024-02-21T20:38:02;8.00;99.90
3678;DHT22;1855;50.934;6.958;2024-02-21T20:40:31;7.90;99.90
3678;DHT22;1855;50.934;6.958;2024-02-21T20:42:58;7.90;99.90
3678;DHT22;1855;50.934;6.958;2024-02-21T20:45:24;7.90;99.90
3678;DHT22;1855;50.934;6.958;2024-02-21T20:47:51;7.90;99.90
3678;DHT22;1855;50.934;6.958;2024-02-21T20:50:18;7.90;99.90
3678;DHT22;1855;50.934;6.958;2024-02-21T20:52:47;7.90;99.90
3678;DHT22;1855;50.934;6.958;2024-02-21T20:55:15;7.90;99.90
3678;DHT22;1855;50.934;6.958;2024-02-21T20:57:49;7.90;99.90
3678;DHT22;1855;50.934;6.958;2024-02-21T21:00:15;7.90;99.90
3678;DHT22;1855;50.934;6.958;2024-02-21T21:02:42;7.90;99.90
3678;DHT22;1855;50.934;6.958;2024-02-21T21:05:10;7.90;99.90
3678;DHT22;1855;50.934;6.958;2024-02-21T21:07:36;7.90;99.90
3678;DHT22;1855;50.934;6.958;2024-02-21T21:10:04;7.90;99.90
3678;DHT22;1855;50.934;6.958;2024-02-21T21:12:34;7.90;99.90
3678;DHT22;1855;50.934;6.958;2024-02-21T21:15:00;7.90;99.90
3678;DHT22;1855;50.934;6.958;2024-02-21T21:17:30;7.90;99.90
3678;DHT22;1855;50.934;6.958;2024-02-21T21:19:56;7.90;99.90
3678;DHT22;1855;50.934;6.958;2024-02-21T21:22:23;7.90;99.90
3678;DHT22;1855;50.934;6.958;2024-02-21T21:24:50;7.90;99.90
3678;DHT22;1855;50.934;6.958;2024-02-21T21:27:18;7.90;99.90
3678;DHT22;1855;50.934;6.958;2024-02-21T21:29:46;7.90;99.90
3678;DHT22;1855;50.934;6.958;2024-02-21T21:32:18;7.90;99.90
3678;DHT22;1855;50.934;6.958;2024-02-21T21:34:44;7.90;99.90
3678;DHT22;1855;50.934;6.958;2024-02-21T21:37:11;7.90;99.90
3678;DHT22;1855;50.934;6.958;2024-02-21T21:39:38;7.90;99.90
3678;DHT22;1855;50.934;6.958;2024-02-21T21:42:07;8.00;99.90